Time;durP1;ratioP1;P1;durP2;ratioP2;P2;SDS_P1;SDS_P2;PMS_P1;PMS_P2;Temp;Humidity;BMP_temperature;BMP_pressure;BME280_temperature;BME280_humidity;BME280_pressure;Samples;Min_cycle;Max_cycle;Signal;HPM_P1;HPM_P2
2023/05/18 00:00:54;;;;;;;10.25;3.30;;;7.70;99.90;;;;;;5080362;28;20055;-81
2023/05/18 00:03:20;;;;;;;7.72;2.92;;;7.60;99.90;;;;;;5128668;27;20486;-81
2023/05/18 00:05:46;;;;;;;7.10;3.20;;;7.60;99.90;;;;;;5056174;28;20153;-81
2023/05/18 00:08:11;;;;;;;7.68;2.83;;;7.50;99.90;;;;;;5098649;28;20046;-80
2023/05/18 00:10:37;;;;;;;11.65;3.50;;;7.50;99.90;;;;;;5069344;28;20047;-81
2023/05/18 00:13:04;;;;;;;9.82;3.17;;;7.50;99.90;;;;;;5067903;28;20097;-81
2023/05/18 00:15:30;;;;;;;7.45;3.17;;;7.50;99.90;;;;;;5099550;28;20044;-81
2023/05/18 00:17:57;;;;;;;8.30;3.03;;;7.40;99.90;;;;;;5105224;28;20134;-81
2023/05/18 00:20:25;;;;;;;9.05;3.55;;;7.40;99.90;;;;;;5085411;28;20482;-81
2023/05/18 00:22:54;;;;;;;7.80;3.03;;;7.40;99.90;;;;;;5116191;27;20050;-81
2023/05/18 00:25:20;;;;;;;6.75;2.45;;;7.30;99.90;;;;;;5086600;28;20501;-81
2023/05/18 00:27:50;;;;;;;6.88;2.72;;;7.30;99.90;;;;;;5098447;27;20112;-81
2023/05/18 00:30:16;;;;;;;9.10;3.35;;;7.30;99.90;;;;;;5052487;28;20055;-81
2023/05/18 00:32:42;;;;;;;9.50;3.08;;;7.30;99.90;;;;;;5101446;28;20043;-81
2023/05/18 00:35:08;;;;;;;8.07;3.40;;;7.30;99.90;;;;;;5068521;28;20055;-81
2023/05/18 00:37:33;;;;;;;7.85;3.05;;;7.40;99.90;;;;;;5102233;28;20409;-81
2023/05/18 00:39:59;;;;;;;6.53;3.58;;;7.30;99.90;;;;;;5099776;28;20509;-81
2023/05/18 00:42:25;;;;;;;10.43;3.58;;;7.30;99.90;;;;;;5065054;28;20187;-81
2023/05/18 00:44:51;;;;;;;8.00;3.28;;;7.30;99.90;;;;;;5052718;28;20383;-81
2023/05/18 00:47:20;;;;;;;7.72;3.50;;;7.30;99.90;;;;;;5082409;28;20084;-81
2023/05/18 00:49:49;;;;;;;9.05;3.60;;;7.30;99.90;;;;;;5103867;28;20028;-82
2023/05/18 00:52:15;;;;;;;8.43;4.05;;;7.40;99.90;;;;;;5085727;28;20042;-81
2023/05/18 00:54:42;;;;;;;7.90;3.88;;;7.30;99.90;;;;;;5109234;27;20799;-81
2023/05/18 00:57:08;;;;;;;8.98;2.95;;;7.30;99.90;;;;;;5097583;28;20059;-81
2023/05/18 00:59:34;;;;;;;10.68;3.55;;;7.30;99.90;;;;;;5098934;28;20047;-81
2023/05/18 01:02:00;;;;;;;6.50;3.35;;;7.30;99.90;;;;;;5082391;28;20040;-81
2023/05/18 01:04:26;;;;;;;8.70;3.70;;;7.30;99.90;;;;;;5065294;28;20031;-81
2023/05/18 01:06:55;;;;;;;10.48;4.05;;;7.30;99.90;;;;;;5068434;28;20122;-81
2023/05/18 01:09:24;;;;;;;7.53;3.45;;;7.30;99.90;;;;;;5100871;27;20457;-81
2023/05/18 01:12:17;;;;;;;8.32;3.28;;;7.20;99.90;;;;;;5081599;28;20039;-81
2023/05/18 01:15:00;;;;;;;8.32;3.40;;;7.30;99.90;;;;;;5133957;27;20036;-81
2023/05/18 01:18:03;;;;;;;8.50;3.70;;;7.30;99.90;;;;;;5099314;28;20165;-81
2023/05/18 01:20:38;;;;;;;8.65;3.42;;;7.30;99.90;;;;;;5082694;28;20040;-81
2023/05/18 01:23:43;;;;;;;6.97;3.63;;;7.40;99.90;;;;;;5095922;28;20032;-81
2023/05/18 01:26:23;;;;;;;7.45;3.40;;;7.40;99.90;;;;;;5116826;27;20050;-79
2023/05/18 01:28:51;;;;;;;;;;;7.40;99.90;;;;;;5082522;28;20078;-79
2023/05/18 01:31:17;;;;;;;9.07;3.92;;;7.40;99.90;;;;;;5117007;27;19920;-79
2023/05/18 01:33:43;;;;;;;6.05;3.00;;;7.30;99.90;;;;;;5061150;28;20059;-79
2023/05/18 01:36:10;;;;;;;7.72;3.83;;;7.30;99.90;;;;;;5078284;28;20043;-79
2023/05/18 01:38:39;;;;;;;7.97;3.40;;;7.30;99.90;;;;;;5102873;28;20136;-79
2023/05/18 01:41:25;;;;;;;7.90;3.60;;;7.30;99.90;;;;;;5070565;28;20054;-79
2023/05/18 01:44:22;;;;;;;7.30;3.53;;;7.20;99.90;;;;;;5102443;27;20040;-78
2023/05/18 01:46:56;;;;;;;7.53;3.50;;;7.20;99.90;;;;;;5101735;28;20558;-79
2023/05/18 01:49:30;;;;;;;11.90;3.97;;;7.30;99.90;;;;;;5100591;28;20043;-79
2023/05/18 01:52:02;;;;;;;8.95;3.90;;;7.30;99.90;;;;;;5084408;28;20134;-79
2023/05/18 01:54:31;;;;;;;9.23;3.55;;;7.30;99.90;;;;;;5080713;28;20093;-79
2023/05/18 01:56:58;;;;;;;9.63;3.72;;;7.40;99.90;;;;;;5084781;28;20048;-79
2023/05/18 01:59:24;;;;;;;9.45;3.78;;;7.40;99.90;;;;;;5087046;28;20067;-78
2023/05/18 02:01:50;;;;;;;7.57;3.85;;;7.40;99.90;;;;;;5097065;28;20043;-79
2023/05/18 02:04:16;;;;;;;13.48;4.38;;;7.50;99.90;;;;;;5121973;27;20151;-79
2023/05/18 02:06:42;;;;;;;8.00;3.45;;;7.50;99.90;;;;;;5082605;28;20657;-79
2023/05/18 02:09:08;;;;;;;8.90;3.17;;;7.50;99.90;;;;;;5123558;27;20402;-79
2023/05/18 02:11:33;;;;;;;11.73;4.20;;;7.50;99.90;;;;;;5088179;28;20155;-79
2023/05/18 02:14:00;;;;;;;7.50;3.42;;;7.50;99.90;;;;;;5102554;28;20070;-79
2023/05/18 02:16:26;;;;;;;7.78;3.38;;;7.50;99.90;;;;;;5105703;28;20054;-79
2023/05/18 02:18:52;;;;;;;9.52;3.88;;;7.50;99.90;;;;;;5102576;28;20028;-79
2023/05/18 02:21:18;;;;;;;10.63;4.10;;;7.60;99.90;;;;;;5102566;28;20048;-79
2023/05/18 02:23:43;;;;;;;11.07;3.85;;;7.60;99.90;;;;;;5099666;28;20055;-79
2023/05/18 02:26:09;;;;;;;9.75;3.60;;;7.60;99.90;;;;;;5067288;28;20040;-79
2023/05/18 02:28:38;;;;;;;9.82;4.40;;;7.60;99.90;;;;;;5083612;28;20036;-78
2023/05/18 02:31:10;;;;;;;8.48;3.45;;;7.60;99.90;;;;;;5081090;28;20055;-79
2023/05/18 02:33:39;;;;;;;9.57;3.35;;;7.60;99.90;;;;;;5081417;28;20048;-82
2023/05/18 02:36:12;;;;;;;9.15;3.65;;;7.60;99.90;;;;;;5100691;28;20455;-79
2023/05/18 02:38:42;;;;;;;8.73;3.75;;;7.60;99.90;;;;;;5084294;28;20059;-81
2023/05/18 02:41:11;;;;;;;10.18;3.67;;;7.60;99.90;;;;;;5081784;28;20526;-81
2023/05/18 02:43:37;;;;;;;9.40;3.33;;;7.60;99.90;;;;;;5112185;27;20440;-81
2023/05/18 02:46:03;;;;;;;7.20;3.55;;;7.70;99.90;;;;;;5136840;27;20047;-81
2023/05/18 02:48:29;;;;;;;8.82;3.85;;;7.70;99.90;;;;;;5097434;28;20058;-81
2023/05/18 02:50:55;;;;;;;8.25;3.65;;;7.60;99.90;;;;;;5101927;28;20050;-81
2023/05/18 02:53:23;;;;;;;10.45;3.55;;;7.60;99.90;;;;;;5085029;28;20043;-81
2023/05/18 02:55:55;;;;;;;7.88;3.53;;;7.60;99.90;;;;;;5102394;28;20452;-81
2023/05/18 02:58:24;;;;;;;10.07;3.88;;;7.60;99.90;;;;;;5094629;28;20504;-81
2023/05/18 03:00:53;;;;;;;8.57;3.85;;;7.60;99.90;;;;;;5065447;28;20039;-81
2023/05/18 03:03:25;;;;;;;10.32;4.78;;;7.60;99.90;;;;;;5097834;28;20044;-81
2023/05/18 03:05:51;;;;;;;10.27;3.90;;;7.50;99.90;;;;;;5081232;28;20050;-82
2023/05/18 03:08:19;;;;;;;10.02;4.35;;;7.50;99.90;;;;;;5086995;28;21641;-82
2023/05/18 03:10:45;;;;;;;9.07;3.67;;;7.50;99.90;;;;;;5087200;28;20031;-82
2023/05/18 03:13:11;;;;;;;7.85;3.90;;;7.50;99.90;;;;;;5071645;28;20317;-81
2023/05/18 03:15:38;;;;;;;11.45;4.15;;;7.40;99.90;;;;;;5085565;28;20122;-81
2023/05/18 03:18:04;;;;;;;6.18;3.08;;;7.50;99.90;;;;;;5089535;28;20044;-81
2023/05/18 03:20:30;;;;;;;11.43;3.97;;;7.50;99.90;;;;;;5106251;28;20108;-81
2023/05/18 03:22:56;;;;;;;9.95;3.80;;;7.50;99.90;;;;;;5103028;28;20083;-81
2023/05/18 03:25:24;;;;;;;9.95;4.07;;;7.50;99.90;;;;;;5072096;28;20124;-81
2023/05/18 03:27:53;;;;;;;5.97;3.20;;;7.60;99.90;;;;;;5071244;28;20436;-81
2023/05/18 03:30:19;;;;;;;10.65;3.50;;;7.60;99.90;;;;;;5090216;28;20035;-81
2023/05/18 03:32:48;;;;;;;11.65;3.85;;;7.60;99.90;;;;;;5068774;28;20043;-81
2023/05/18 03:35:14;;;;;;;7.90;3.30;;;7.60;99.90;;;;;;5085762;27;20049;-81
2023/05/18 03:37:40;;;;;;;8.55;3.40;;;7.60;99.90;;;;;;5102482;28;20394;-81
2023/05/18 03:40:12;;;;;;;8.50;3.80;;;7.60;99.90;;;;;;5084583;27;20043;-81
2023/05/18 03:42:39;;;;;;;7.25;3.47;;;7.60;99.90;;;;;;5081349;28;20032;-81
2023/05/18 03:45:06;;;;;;;8.73;3.28;;;7.60;99.90;;;;;;5102689;27;20051;-81
2023/05/18 03:47:32;;;;;;;8.43;3.53;;;7.60;99.90;;;;;;5069753;28;20544;-81
2023/05/18 03:49:58;;;;;;;8.73;3.70;;;7.50;99.90;;;;;;5097659;28;20036;-81
2023/05/18 03:52:24;;;;;;;13.07;4.82;;;7.60;99.90;;;;;;5103239;28;20040;-79
2023/05/18 03:54:53;;;;;;;12.60;3.78;;;7.60;99.90;;;;;;5097770;28;20345;-78
2023/05/18 03:57:18;;;;;;;7.80;4.40;;;7.60;99.90;;;;;;5070278;28;20080;-79
2023/05/18 03:59:44;;;;;;;8.18;3.70;;;7.60;99.90;;;;;;5084491;28;20040;-79
2023/05/18 04:02:10;;;;;;;7.72;3.78;;;7.60;99.90;;;;;;5095900;27;20048;-79
2023/05/18 04:04:40;;;;;;;9.23;3.55;;;7.60;99.90;;;;;;5101289;27;20379;-79
2023/05/18 04:07:07;;;;;;;7.55;3.55;;;7.70;99.90;;;;;;5101398;28;20109;-79
2023/05/18 04:09:34;;;;;;;9.82;3.40;;;7.70;99.90;;;;;;5116368;27;20636;-79
2023/05/18 04:12:01;;;;;;;9.18;3.42;;;7.70;99.90;;;;;;5107960;27;20105;-79
2023/05/18 04:14:27;;;;;;;8.52;3.35;;;7.70;99.90;;;;;;5098957;28;20044;-79
2023/05/18 04:16:55;;;;;;;9.68;3.88;;;7.70;99.90;;;;;;5132434;27;20060;-79
2023/05/18 04:19:24;;;;;;;9.48;3.85;;;7.70;99.90;;;;;;5091975;27;20768;-79
2023/05/18 04:21:49;;;;;;;8.85;3.10;;;7.70;99.90;;;;;;5129116;27;20458;-79
2023/05/18 04:24:15;;;;;;;9.48;3.97;;;7.80;99.90;;;;;;5089195;28;20128;-79
2023/05/18 04:26:41;;;;;;;8.20;3.15;;;7.80;99.90;;;;;;5093568;28;20054;-79
2023/05/18 04:29:09;;;;;;;9.40;3.88;;;7.80;99.90;;;;;;5101382;28;20133;-79
2023/05/18 04:31:41;;;;;;;10.43;3.90;;;7.80;99.90;;;;;;5100233;28;20059;-79
2023/05/18 04:34:07;;;;;;;8.65;3.33;;;7.80;99.90;;;;;;5112804;27;20402;-79
2023/05/18 04:36:38;;;;;;;9.27;3.35;;;7.80;99.90;;;;;;5110363;27;20043;-79
2023/05/18 04:39:06;;;;;;;7.82;3.20;;;7.80;99.90;;;;;;5104479;27;20048;-79
2023/05/18 04:41:33;;;;;;;9.23;3.08;;;7.80;99.90;;;;;;5100376;28;20075;-79
2023/05/18 04:43:59;;;;;;;8.77;3.35;;;7.80;99.90;;;;;;5104307;27;20057;-79
2023/05/18 04:46:26;;;;;;;8.27;3.30;;;7.80;99.90;;;;;;5084081;28;20054;-79
2023/05/18 04:48:52;;;;;;;8.30;3.22;;;7.90;99.90;;;;;;5113562;27;20035;-79
2023/05/18 04:51:20;;;;;;;6.82;3.20;;;7.90;99.90;;;;;;5084318;28;20112;-79
2023/05/18 04:53:50;;;;;;;8.55;4.15;;;7.90;99.90;;;;;;5080772;28;20655;-79
2023/05/18 04:56:16;;;;;;;8.48;3.30;;;7.90;99.90;;;;;;5088503;28;20165;-79
2023/05/18 04:58:47;;;;;;;7.18;2.70;;;8.00;99.90;;;;;;5088473;28;20498;-79
2023/05/18 05:01:14;;;;;;;;;;;8.00;99.90;;;;;;5091857;28;20051;-78
2023/05/18 05:03:40;;;;;;;7.50;2.70;;;8.10;99.90;;;;;;5100578;28;19924;-78
2023/05/18 05:06:09;;;;;;;8.18;2.78;;;8.10;99.90;;;;;;5063718;28;20062;-79
2023/05/18 05:08:36;;;;;;;7.32;2.58;;;8.10;99.90;;;;;;5084240;28;20461;-73
2023/05/18 05:11:03;;;;;;;8.63;2.75;;;8.10;99.90;;;;;;5091746;28;20055;-73
2023/05/18 05:13:29;;;;;;;8.73;3.08;;;8.10;99.90;;;;;;5116763;27;20039;-73
2023/05/18 05:15:54;;;;;;;8.57;3.08;;;8.20;99.90;;;;;;5088807;28;20525;-73
2023/05/18 05:18:21;;;;;;;8.30;2.38;;;8.20;99.90;;;;;;5086883;28;20060;-73
2023/05/18 05:20:49;;;;;;;9.73;3.03;;;8.20;99.90;;;;;;5081400;28;20115;-73
2023/05/18 05:23:14;;;;;;;6.60;2.90;;;8.30;99.90;;;;;;5084777;28;20067;-73
2023/05/18 05:25:43;;;;;;;6.80;2.72;;;8.30;99.90;;;;;;5093489;27;20856;-73
2023/05/18 05:28:09;;;;;;;8.52;3.00;;;8.30;99.90;;;;;;5067936;28;20594;-73
2023/05/18 05:30:35;;;;;;;8.60;2.40;;;8.40;99.90;;;;;;5096854;28;20228;-73
2023/05/18 05:33:01;;;;;;;10.35;3.08;;;8.40;99.90;;;;;;5084536;28;20094;-73
2023/05/18 05:35:27;;;;;;;8.05;3.08;;;8.40;99.90;;;;;;5085579;28;20490;-73
2023/05/18 05:37:55;;;;;;;6.88;2.78;;;8.50;99.90;;;;;;5118547;27;20031;-73
2023/05/18 05:40:21;;;;;;;11.25;2.90;;;8.50;99.90;;;;;;5099604;28;20160;-73
2023/05/18 05:42:47;;;;;;;7.97;2.67;;;8.50;99.90;;;;;;5088207;28;20036;-73
2023/05/18 05:45:13;;;;;;;8.18;2.72;;;8.50;99.90;;;;;;5065774;28;20048;-73
2023/05/18 05:47:39;;;;;;;9.80;2.40;;;8.50;99.90;;;;;;5086833;28;20092;-78
2023/05/18 05:50:05;;;;;;;7.10;2.45;;;8.60;99.90;;;;;;5054088;28;20918;-78
2023/05/18 05:52:31;;;;;;;7.25;2.70;;;8.60;99.90;;;;;;5079587;28;20099;-78
2023/05/18 05:54:57;;;;;;;9.60;2.70;;;8.60;99.90;;;;;;5084038;28;20468;-78
2023/05/18 05:57:23;;;;;;;7.63;2.20;;;8.60;99.90;;;;;;5095012;28;20048;-81
2023/05/18 05:59:48;;;;;;;7.15;2.60;;;8.70;99.90;;;;;;5115752;27;20062;-81
2023/05/18 06:02:14;;;;;;;7.38;2.33;;;8.70;99.90;;;;;;5086132;28;20724;-81
2023/05/18 06:04:40;;;;;;;9.77;3.22;;;8.70;99.90;;;;;;5065280;28;20071;-80
2023/05/18 06:07:06;;;;;;;9.95;2.75;;;8.70;99.90;;;;;;5102333;28;20518;-80
2023/05/18 06:09:32;;;;;;;8.90;2.50;;;8.70;99.90;;;;;;5084367;28;20058;-81
2023/05/18 06:11:58;;;;;;;10.55;2.58;;;8.70;99.90;;;;;;5067691;28;20051;-81
2023/05/18 06:14:23;;;;;;;6.78;2.70;;;8.80;99.90;;;;;;5083109;28;20044;-81
2023/05/18 06:16:49;;;;;;;7.47;2.80;;;8.80;99.90;;;;;;5085000;28;20042;-80
2023/05/18 06:19:15;;;;;;;9.55;2.65;;;8.80;99.90;;;;;;5092459;28;20051;-80
2023/05/18 06:21:41;;;;;;;9.63;2.90;;;8.90;99.90;;;;;;5100756;27;20054;-81
2023/05/18 06:24:07;;;;;;;10.55;3.28;;;8.90;99.90;;;;;;5077868;28;20031;-81
2023/05/18 06:26:33;;;;;;;5.10;2.03;;;8.90;99.90;;;;;;5134957;27;20490;-81
2023/05/18 06:28:59;;;;;;;8.43;2.45;;;8.90;99.90;;;;;;5081193;28;20051;-80
2023/05/18 06:31:25;;;;;;;7.13;2.90;;;8.90;99.90;;;;;;5115633;27;20047;-78
2023/05/18 06:33:51;;;;;;;7.47;2.50;;;9.00;99.90;;;;;;5046774;28;20047;-78
2023/05/18 06:36:17;;;;;;;9.18;3.28;;;9.00;99.90;;;;;;5079957;28;20097;-81
2023/05/18 06:38:43;;;;;;;6.85;2.22;;;9.10;99.90;;;;;;5084758;28;20406;-81
2023/05/18 06:41:09;;;;;;;7.88;2.67;;;9.20;99.90;;;;;;5070442;28;20434;-81
2023/05/18 06:43:35;;;;;;;7.60;2.40;;;9.20;99.90;;;;;;5087055;28;20032;-80
2023/05/18 06:46:01;;;;;;;7.45;2.75;;;9.30;99.90;;;;;;5101447;28;20596;-80
2023/05/18 06:48:27;;;;;;;9.93;3.00;;;9.40;99.90;;;;;;5121458;27;20056;-80
2023/05/18 06:50:54;;;;;;;12.10;3.03;;;9.40;99.90;;;;;;5088652;28;20031;-76
2023/05/18 06:53:21;;;;;;;9.93;3.33;;;9.50;99.90;;;;;;5105153;28;20462;-76
2023/05/18 06:55:47;;;;;;;9.98;2.78;;;9.50;99.90;;;;;;5088492;28;20043;-75
2023/05/18 06:58:12;;;;;;;9.20;2.33;;;9.60;99.90;;;;;;5085570;28;20047;-76
2023/05/18 07:00:38;;;;;;;11.43;3.15;;;9.60;99.90;;;;;;5071032;28;20486;-75
2023/05/18 07:03:04;;;;;;;8.18;2.80;;;9.60;99.90;;;;;;5077458;28;20087;-76
2023/05/18 07:05:30;;;;;;;9.88;3.35;;;9.60;99.90;;;;;;5105940;28;20039;-76
2023/05/18 07:07:56;;;;;;;8.82;2.75;;;9.70;99.90;;;;;;5100023;28;20802;-75
2023/05/18 07:10:22;;;;;;;9.18;2.80;;;9.70;99.90;;;;;;5089335;28;20119;-76
2023/05/18 07:12:48;;;;;;;9.60;3.22;;;9.70;99.90;;;;;;5082234;28;20035;-81
2023/05/18 07:15:14;;;;;;;8.60;2.60;;;9.70;99.90;;;;;;5140648;27;20118;-80
2023/05/18 07:17:44;;;;;;;7.95;2.58;;;9.80;99.90;;;;;;5087171;28;20509;-81
2023/05/18 07:20:10;;;;;;;9.48;3.03;;;9.80;99.90;;;;;;5088952;28;20058;-81
2023/05/18 07:22:36;;;;;;;5.93;2.60;;;9.80;99.90;;;;;;5089012;28;20039;-80
2023/05/18 07:25:02;;;;;;;8.07;2.55;;;9.80;99.90;;;;;;5104593;28;20043;-80
2023/05/18 07:27:28;;;;;;;9.40;2.70;;;9.80;99.90;;;;;;5081789;28;20597;-78
2023/05/18 07:29:53;;;;;;;10.10;2.95;;;9.70;99.90;;;;;;5079954;28;20408;-73
2023/05/18 07:32:19;;;;;;;10.27;3.42;;;9.70;99.90;;;;;;5069421;28;20048;-73
2023/05/18 07:34:45;;;;;;;8.63;2.83;;;9.70;99.90;;;;;;5081535;28;20039;-73
2023/05/18 07:37:12;;;;;;;9.05;2.88;;;9.70;99.90;;;;;;5069342;28;20050;-73
2023/05/18 07:39:38;;;;;;;7.68;2.53;;;9.80;99.90;;;;;;5078945;28;21263;-73
2023/05/18 07:42:05;;;;;;;8.32;2.63;;;9.80;99.90;;;;;;5078184;28;20075;-73
2023/05/18 07:44:30;;;;;;;7.30;2.50;;;9.80;99.90;;;;;;5103351;28;20032;-73
2023/05/18 07:46:56;;;;;;;8.90;2.47;;;9.90;99.90;;;;;;5099065;28;20040;-73
2023/05/18 07:49:22;;;;;;;7.38;2.42;;;10.00;99.90;;;;;;5103423;28;20050;-73
2023/05/18 07:51:49;;;;;;;7.30;2.67;;;10.00;99.90;;;;;;5083359;28;20035;-74
2023/05/18 07:54:15;;;;;;;6.93;2.70;;;10.20;99.90;;;;;;5084670;28;20146;-73
2023/05/18 07:56:40;;;;;;;7.65;2.83;;;10.40;99.90;;;;;;5099282;28;20357;-74
2023/05/18 07:59:08;;;;;;;9.48;2.42;;;10.50;99.90;;;;;;5098350;28;20610;-76
2023/05/18 08:01:37;;;;;;;10.05;2.95;;;10.60;99.40;;;;;;5115437;27;20461;-75
2023/05/18 08:04:06;;;;;;;6.63;2.22;;;10.60;99.10;;;;;;5084234;28;20044;-76
2023/05/18 08:06:31;;;;;;;7.72;3.05;;;10.80;99.40;;;;;;5095124;28;20054;-73
2023/05/18 08:08:57;;;;;;;9.95;2.67;;;11.00;98.60;;;;;;5094294;28;20035;-73
2023/05/18 08:11:23;;;;;;;7.72;2.45;;;11.10;98.40;;;;;;5100942;27;20036;-73
2023/05/18 08:13:49;;;;;;;7.30;2.50;;;11.30;98.30;;;;;;5079669;28;20075;-73
2023/05/18 08:16:15;;;;;;;8.13;2.33;;;11.40;97.00;;;;;;5086108;28;20055;-74
2023/05/18 08:18:41;;;;;;;10.95;2.63;;;11.40;95.80;;;;;;5065370;28;20032;-73
2023/05/18 08:21:08;;;;;;;9.10;2.70;;;11.50;95.20;;;;;;5099630;28;20031;-73
2023/05/18 08:23:36;;;;;;;7.63;2.35;;;11.50;94.70;;;;;;5084060;28;20043;-74
2023/05/18 08:26:02;;;;;;;8.57;2.33;;;11.50;94.20;;;;;;5050882;28;20174;-74
2023/05/18 08:28:29;;;;;;;7.53;2.17;;;11.60;93.80;;;;;;5082550;28;20112;-73
2023/05/18 08:30:55;;;;;;;7.50;2.40;;;11.60;94.00;;;;;;5129936;27;20101;-73
2023/05/18 08:33:24;;;;;;;7.25;2.17;;;11.80;94.10;;;;;;5081840;28;20036;-73
2023/05/18 08:35:50;;;;;;;7.67;2.70;;;11.80;93.80;;;;;;5094129;28;20060;-73
2023/05/18 08:38:16;;;;;;;7.05;2.22;;;11.80;93.60;;;;;;5113728;27;20068;-73
2023/05/18 08:41:24;;;;;;;7.65;2.50;;;11.90;93.30;;;;;;5086134;28;20051;-73
2023/05/18 08:44:00;;;;;;;6.82;2.45;;;12.10;92.80;;;;;;5070655;28;20064;-74
2023/05/18 08:46:41;;;;;;;6.90;2.47;;;12.10;92.00;;;;;;5132024;27;20043;-74
2023/05/18 08:49:09;;;;;;;5.22;2.40;;;12.10;91.70;;;;;;5098174;28;20054;-73
2023/05/18 08:51:36;;;;;;;7.20;2.10;;;12.10;91.80;;;;;;5083009;28;20051;-73
2023/05/18 08:54:04;;;;;;;9.15;2.17;;;12.20;91.50;;;;;;5065271;28;20051;-74
2023/05/18 08:56:34;;;;;;;7.70;2.33;;;12.30;91.50;;;;;;5132491;27;20043;-74
2023/05/18 08:59:07;;;;;;;6.45;2.15;;;12.40;93.10;;;;;;5067172;28;21640;-74
2023/05/18 09:01:33;;;;;;;6.68;2.15;;;12.60;91.40;;;;;;5079031;28;20050;-73
2023/05/18 09:04:00;;;;;;;7.05;2.05;;;12.60;91.10;;;;;;5098635;28;20048;-73
2023/05/18 09:06:27;;;;;;;7.85;2.38;;;12.70;91.20;;;;;;5099352;28;20084;-73
2023/05/18 09:08:57;;;;;;;7.70;2.95;;;12.80;91.90;;;;;;5050481;28;20035;-73
2023/05/18 09:11:25;;;;;;;6.88;2.30;;;13.10;92.00;;;;;;5081719;28;20039;-73
2023/05/18 09:13:51;;;;;;;7.70;3.22;;;13.20;90.30;;;;;;5117175;27;20046;-73
2023/05/18 09:16:20;;;;;;;7.40;2.30;;;13.20;86.60;;;;;;5079647;28;20126;-76
2023/05/18 09:18:45;;;;;;;14.05;2.47;;;13.20;87.70;;;;;;5061856;28;20066;-73
2023/05/18 09:21:11;;;;;;;10.93;2.63;;;13.30;89.70;;;;;;5082596;28;20036;-74
2023/05/18 09:23:41;;;;;;;7.57;2.50;;;13.40;88.30;;;;;;5067618;28;20553;-75
2023/05/18 09:26:10;;;;;;;9.63;2.80;;;13.30;85.30;;;;;;5116309;27;20774;-74
2023/05/18 09:28:41;;;;;;;7.17;2.33;;;13.00;85.40;;;;;;5116540;27;20039;-74
2023/05/18 09:31:16;;;;;;;10.20;2.75;;;12.90;86.10;;;;;;5093946;28;20796;-73
2023/05/18 09:33:43;;;;;;;7.45;2.67;;;12.90;85.30;;;;;;5125342;27;20084;-74
2023/05/18 09:36:10;;;;;;;6.10;2.22;;;13.00;84.20;;;;;;5118992;27;20047;-72
2023/05/18 09:38:44;;;;;;;7.90;2.55;;;12.90;83.40;;;;;;5100614;28;20059;-73
2023/05/18 09:41:12;;;;;;;7.90;2.60;;;12.80;84.40;;;;;;5081929;28;20050;-73
2023/05/18 09:43:39;;;;;;;6.88;2.40;;;12.80;87.60;;;;;;5097680;28;20668;-73
2023/05/18 09:46:06;;;;;;;7.03;2.10;;;12.90;85.70;;;;;;5083043;28;20045;-73
2023/05/18 09:48:41;;;;;;;8.48;2.53;;;12.90;85.50;;;;;;5098845;28;20691;-74
2023/05/18 09:51:09;;;;;;;8.50;2.22;;;12.90;85.50;;;;;;5101762;28;20138;-73
2023/05/18 09:53:38;;;;;;;9.43;2.80;;;12.90;84.20;;;;;;5086465;28;20043;-73
2023/05/18 09:56:05;;;;;;;7.28;2.30;;;12.90;85.60;;;;;;5081887;28;20552;-73
2023/05/18 09:58:33;;;;;;;7.72;2.20;;;13.00;86.50;;;;;;5079258;28;20043;-73
2023/05/18 10:01:00;;;;;;;6.13;2.33;;;13.10;84.70;;;;;;5083061;28;20114;-72
2023/05/18 10:03:38;;;;;;;9.10;2.22;;;13.10;84.10;;;;;;5062188;28;20076;-73
2023/05/18 10:06:08;;;;;;;7.78;2.80;;;13.10;84.20;;;;;;5101661;28;20046;-73
2023/05/18 10:08:35;;;;;;;7.40;2.30;;;13.30;86.20;;;;;;5077902;28;20494;-75
2023/05/18 10:11:02;;;;;;;7.63;2.40;;;13.40;86.30;;;;;;5085668;28;20040;-74
2023/05/18 10:13:30;;;;;;;6.82;2.08;;;13.50;84.80;;;;;;5093490;28;20048;-74
2023/05/18 10:15:58;;;;;;;7.22;2.00;;;13.60;82.70;;;;;;5090966;28;20051;-74
2023/05/18 10:18:26;;;;;;;7.95;2.45;;;13.60;81.80;;;;;;5116014;27;20043;-74
2023/05/18 10:20:55;;;;;;;7.18;2.10;;;13.50;81.60;;;;;;5105833;28;20705;-74
2023/05/18 10:23:22;;;;;;;7.68;2.60;;;13.50;82.00;;;;;;5133395;27;20051;-73
2023/05/18 10:25:49;;;;;;;7.43;2.40;;;13.40;81.70;;;;;;5123559;27;20052;-78
2023/05/18 10:28:27;;;;;;;9.35;2.42;;;13.50;77.90;;;;;;5070197;28;20554;-73
2023/05/18 10:30:57;;;;;;;9.20;2.85;;;13.40;78.50;;;;;;5138588;27;20522;-76
2023/05/18 10:33:26;;;;;;;7.30;2.90;;;13.30;80.70;;;;;;5067287;28;20650;-76
2023/05/18 10:35:52;;;;;;;7.03;2.25;;;13.30;81.30;;;;;;5099322;28;20584;-75
2023/05/18 10:38:20;;;;;;;6.85;2.17;;;13.20;82.30;;;;;;5082463;28;20497;-76
2023/05/18 10:40:49;;;;;;;6.85;2.72;;;13.30;80.20;;;;;;5103904;28;20051;-77
2023/05/18 10:43:26;;;;;;;7.38;2.22;;;13.40;81.80;;;;;;5126823;27;20796;-79
2023/05/18 10:45:57;;;;;;;5.88;2.40;;;13.50;81.40;;;;;;5082706;28;20039;-78
2023/05/18 10:48:24;;;;;;;8.57;2.78;;;13.60;82.10;;;;;;5127035;27;20546;-78
2023/05/18 10:50:52;;;;;;;7.30;2.40;;;13.70;81.40;;;;;;5068670;28;20326;-77
2023/05/18 10:53:19;;;;;;;6.20;2.50;;;13.70;82.00;;;;;;5128055;27;20062;-78
2023/05/18 10:55:50;;;;;;;9.80;2.75;;;13.80;80.40;;;;;;5114569;27;20055;-77
2023/05/18 10:58:17;;;;;;;;;;;13.80;79.10;;;;;;5091572;28;20861;-77
2023/05/18 11:00:50;;;;;;;8.13;2.88;;;13.80;80.10;;;;;;5139580;27;19923;-76
2023/05/18 11:03:17;;;;;;;7.68;2.40;;;13.90;79.60;;;;;;5114354;27;20028;-78
2023/05/18 11:05:47;;;;;;;6.78;2.67;;;14.00;79.10;;;;;;5107811;27;20667;-78
2023/05/18 11:08:25;;;;;;;8.63;2.63;;;14.10;80.10;;;;;;5087818;28;20502;-79
2023/05/18 11:11:07;;;;;;;6.22;2.78;;;14.00;78.40;;;;;;5095159;28;20442;-75
2023/05/18 11:13:35;;;;;;;6.38;2.22;;;14.00;79.50;;;;;;5075773;28;20537;-79
2023/05/18 11:16:01;;;;;;;8.13;2.50;;;14.20;80.40;;;;;;5129574;27;20487;-77
2023/05/18 11:18:45;;;;;;;7.78;2.60;;;14.30;79.60;;;;;;5130785;27;20039;-79
2023/05/18 11:21:40;;;;;;;6.80;2.33;;;14.40;79.20;;;;;;5087161;27;20176;-77
2023/05/18 11:24:28;;;;;;;9.38;2.58;;;14.40;80.60;;;;;;5063739;28;20059;-78
2023/05/18 11:26:59;;;;;;;7.38;2.70;;;14.60;80.10;;;;;;5133523;27;21117;-79
2023/05/18 11:29:39;;;;;;;7.57;3.42;;;14.70;76.70;;;;;;5085624;28;20197;-79
2023/05/18 11:32:21;;;;;;;8.05;2.53;;;14.60;74.50;;;;;;5120846;27;20055;-78
2023/05/18 11:34:52;;;;;;;7.50;2.78;;;14.60;77.80;;;;;;5089535;28;20040;-78
2023/05/18 11:37:45;;;;;;;7.28;2.80;;;14.60;77.60;;;;;;5099355;28;20081;-77
2023/05/18 11:40:32;;;;;;;7.90;2.13;;;14.70;79.30;;;;;;5120263;27;20080;-78
2023/05/18 11:43:01;;;;;;;9.13;2.90;;;14.80;76.60;;;;;;5112608;27;20032;-77
2023/05/18 11:45:27;;;;;;;6.47;2.83;;;14.80;77.40;;;;;;5066259;28;20085;-77
2023/05/18 11:48:00;;;;;;;9.38;2.42;;;14.80;78.20;;;;;;5077227;28;20051;-80
2023/05/18 11:50:26;;;;;;;8.40;3.17;;;14.90;77.80;;;;;;5095421;28;20040;-78
2023/05/18 11:52:52;;;;;;;7.15;3.05;;;14.90;75.10;;;;;;5097784;28;20047;-80
2023/05/18 11:55:19;;;;;;;7.80;2.63;;;14.80;76.10;;;;;;5080330;28;20036;-78
2023/05/18 11:57:51;;;;;;;8.43;2.65;;;14.60;76.80;;;;;;5075280;28;20514;-77
2023/05/18 12:00:18;;;;;;;7.95;2.90;;;14.70;78.30;;;;;;5080042;28;20044;-79
2023/05/18 12:02:46;;;;;;;7.68;3.05;;;14.80;77.80;;;;;;5111652;27;20051;-78
2023/05/18 12:05:14;;;;;;;6.65;2.85;;;14.80;76.70;;;;;;5103198;27;20146;-77
2023/05/18 12:07:40;;;;;;;7.30;3.53;;;14.80;76.50;;;;;;5114534;27;20051;-78
2023/05/18 12:10:09;;;;;;;9.88;2.75;;;14.80;76.70;;;;;;5109885;27;20079;-77
2023/05/18 12:12:35;;;;;;;6.97;3.08;;;14.80;76.40;;;;;;5099507;27;20670;-78
2023/05/18 12:15:04;;;;;;;8.35;2.92;;;14.90;77.60;;;;;;5107486;27;20362;-79
2023/05/18 12:17:44;;;;;;;6.70;2.72;;;15.00;76.30;;;;;;5093818;28;20545;-79
2023/05/18 12:20:19;;;;;;;6.55;2.97;;;15.00;76.00;;;;;;5097523;27;20557;-77
2023/05/18 12:22:50;;;;;;;8.25;3.33;;;15.00;76.50;;;;;;5118781;27;20040;-79
2023/05/18 12:25:17;;;;;;;6.60;2.85;;;15.00;76.90;;;;;;5107436;27;20040;-78
2023/05/18 12:27:44;;;;;;;9.57;3.15;;;15.10;76.50;;;;;;5105301;27;20044;-76
2023/05/18 12:30:15;;;;;;;7.40;2.80;;;15.20;76.40;;;;;;5113994;27;20040;-76
2023/05/18 12:32:45;;;;;;;7.07;2.75;;;15.20;75.70;;;;;;5084588;28;20055;-78
2023/05/18 12:35:11;;;;;;;9.27;3.08;;;15.30;76.80;;;;;;5087614;28;20297;-78
2023/05/18 12:37:43;;;;;;;6.90;2.78;;;15.40;74.80;;;;;;5118078;27;20135;-77
2023/05/18 12:40:14;;;;;;;7.63;2.60;;;15.50;74.20;;;;;;5079839;28;20039;-78
2023/05/18 12:42:51;;;;;;;5.30;2.58;;;15.50;77.10;;;;;;5095480;28;20031;-76
2023/05/18 12:45:17;;;;;;;7.55;2.67;;;15.60;74.00;;;;;;5093898;27;20065;-79
2023/05/18 12:47:44;;;;;;;6.95;2.80;;;15.60;74.30;;;;;;5076306;28;20169;-77
2023/05/18 12:50:12;;;;;;;7.45;2.60;;;15.70;73.40;;;;;;5097184;28;20509;-76
2023/05/18 12:52:39;;;;;;;7.55;2.85;;;15.70;72.90;;;;;;5062016;28;20734;-77
2023/05/18 12:55:13;;;;;;;7.80;2.70;;;15.80;72.70;;;;;;5091792;28;20572;-77
2023/05/18 12:57:40;;;;;;;7.13;2.80;;;15.70;73.40;;;;;;5090020;28;20055;-77
2023/05/18 13:00:10;;;;;;;6.47;3.30;;;15.70;74.70;;;;;;5073020;28;20044;-77